sensor_id;sensor_type;location;lat;lon;timestamp;temperature;humidity
4922;DHT22;16625;53.624;10.106;2023-05-29T00:01:15;12.00;1.00
4922;DHT22;16625;53.624;10.106;2023-05-29T00:03:44;13.30;1.00
4922;DHT22;16625;53.624;10.106;2023-05-29T00:06:11;13.20;1.00
4922;DHT22;16625;53.624;10.106;2023-05-29T00:08:38;13.40;1.00
4922;DHT22;16625;53.624;10.106;2023-05-29T00:11:05;13.70;1.00
4922;DHT22;16625;53.624;10.106;2023-05-29T00:13:34;12.90;1.00
4922;DHT22;16625;53.624;10.106;2023-05-29T00:16:01;13.00;1.00
4922;DHT22;16625;53.624;10.106;2023-05-29T00:18:29;11.80;1.00
4922;DHT22;16625;53.624;10.106;2023-05-29T00:20:55;12.80;1.00
4922;DHT22;16625;53.624;10.106;2023-05-29T00:23:23;12.10;1.00
4922;DHT22;16625;53.624;10.106;2023-05-29T00:25:50;11.90;1.00
4922;DHT22;16625;53.624;10.106;2023-05-29T00:28:17;11.50;1.00
4922;DHT22;16625;53.624;10.106;2023-05-29T00:30:45;12.20;1.00
4922;DHT22;16625;53.624;10.106;2023-05-29T00:33:12;12.20;1.00
4922;DHT22;16625;53.624;10.106;2023-05-29T00:35:39;11.20;10.30
4922;DHT22;16625;53.624;10.106;2023-05-29T00:38:06;11.50;61.90
4922;DHT22;16625;53.624;10.106;2023-05-29T00:40:33;11.80;99.90
4922;DHT22;16625;53.624;10.106;2023-05-29T00:43:00;11.30;99.90
4922;DHT22;16625;53.624;10.106;2023-05-29T00:45:28;11.50;99.90
4922;DHT22;16625;53.624;10.106;2023-05-29T00:47:58;11.40;99.90
4922;DHT22;16625;53.624;10.106;2023-05-29T00:50:25;11.80;99.90
4922;DHT22;16625;53.624;10.106;2023-05-29T00:52:52;11.30;99.90
4922;DHT22;16625;53.624;10.106;2023-05-29T00:55:19;10.60;99.90
4922;DHT22;16625;53.624;10.106;2023-05-29T00:57:47;11.10;99.90
4922;DHT22;16625;53.624;10.106;2023-05-29T01:00:16;10.80;1.00
4922;DHT22;16625;53.624;10.106;2023-05-29T01:02:44;10.40;1.00
4922;DHT22;16625;53.624;10.106;2023-05-29T01:05:13;10.40;1.00
4922;DHT22;16625;53.624;10.106;2023-05-29T01:07:40;10.50;1.00
4922;DHT22;16625;53.624;10.106;2023-05-29T01:10:08;10.10;1.00
4922;DHT22;16625;53.624;10.106;2023-05-29T01:12:39;10.00;1.00
4922;DHT22;16625;53.624;10.106;2023-05-29T01:15:17;10.50;99.90
4922;DHT22;16625;53.624;10.106;2023-05-29T01:17:55;9.80;99.90
4922;DHT22;16625;53.624;10.106;2023-05-29T01:20:35;10.50;99.90
4922;DHT22;16625;53.624;10.106;2023-05-29T01:26:09;9.70;1.00
4922;DHT22;16625;53.624;10.106;2023-05-29T01:28:41;9.60;1.00
4922;DHT22;16625;53.624;10.106;2023-05-29T01:31:09;9.60;1.00
4922;DHT22;16625;53.624;10.106;2023-05-29T01:33:39;9.40;1.00
4922;DHT22;16625;53.624;10.106;2023-05-29T01:36:07;9.40;99.90
4922;DHT22;16625;53.624;10.106;2023-05-29T01:38:34;9.30;99.90
4922;DHT22;16625;53.624;10.106;2023-05-29T01:41:01;9.30;99.90
4922;DHT22;16625;53.624;10.106;2023-05-29T01:43:28;9.20;1.00
4922;DHT22;16625;53.624;10.106;2023-05-29T01:45:57;9.50;99.90
4922;DHT22;16625;53.624;10.106;2023-05-29T01:48:25;10.30;99.90
4922;DHT22;16625;53.624;10.106;2023-05-29T01:50:52;9.10;99.90
4922;DHT22;16625;53.624;10.106;2023-05-29T01:53:19;9.10;99.90
4922;DHT22;16625;53.624;10.106;2023-05-29T01:55:48;9.00;1.00
4922;DHT22;16625;53.624;10.106;2023-05-29T01:58:16;8.90;1.00
4922;DHT22;16625;53.624;10.106;2023-05-29T02:00:44;9.00;15.30
4922;DHT22;16625;53.624;10.106;2023-05-29T02:03:13;8.80;99.90
4922;DHT22;16625;53.624;10.106;2023-05-29T02:05:40;10.60;99.90
4922;DHT22;16625;53.624;10.106;2023-05-29T02:08:06;9.70;99.90
4922;DHT22;16625;53.624;10.106;2023-05-29T02:10:33;10.10;99.90
4922;DHT22;16625;53.624;10.106;2023-05-29T02:13:00;10.20;1.00
4922;DHT22;16625;53.624;10.106;2023-05-29T02:15:27;10.50;99.90
4922;DHT22;16625;53.624;10.106;2023-05-29T02:17:54;10.30;99.90
4922;DHT22;16625;53.624;10.106;2023-05-29T02:20:22;8.60;99.90
4922;DHT22;16625;53.624;10.106;2023-05-29T02:22:49;9.70;99.90
4922;DHT22;16625;53.624;10.106;2023-05-29T02:25:16;8.60;99.90
4922;DHT22;16625;53.624;10.106;2023-05-29T02:27:43;9.80;99.90
4922;DHT22;16625;53.624;10.106;2023-05-29T02:30:10;8.60;99.90
4922;DHT22;16625;53.624;10.106;2023-05-29T02:32:37;8.40;99.90
4922;DHT22;16625;53.624;10.106;2023-05-29T02:35:05;8.40;99.90
4922;DHT22;16625;53.624;10.106;2023-05-29T02:37:34;8.30;99.90
4922;DHT22;16625;53.624;10.106;2023-05-29T02:40:01;8.40;99.90
4922;DHT22;16625;53.624;10.106;2023-05-29T02:42:28;8.20;1.00
4922;DHT22;16625;53.624;10.106;2023-05-29T02:44:55;10.10;1.00
4922;DHT22;16625;53.624;10.106;2023-05-29T02:47:21;8.30;99.90
4922;DHT22;16625;53.624;10.106;2023-05-29T02:49:48;8.30;99.90
4922;DHT22;16625;53.624;10.106;2023-05-29T02:52:15;8.90;99.90
4922;DHT22;16625;53.624;10.106;2023-05-29T02:54:43;8.10;1.00
4922;DHT22;16625;53.624;10.106;2023-05-29T02:57:10;9.20;1.00
4922;DHT22;16625;53.624;10.106;2023-05-29T02:59:37;9.30;1.00
4922;DHT22;16625;53.624;10.106;2023-05-29T03:02:04;9.30;1.00
4922;DHT22;16625;53.624;10.106;2023-05-29T03:04:32;9.50;1.00
4922;DHT22;16625;53.624;10.106;2023-05-29T03:06:58;8.50;1.00
4922;DHT22;16625;53.624;10.106;2023-05-29T03:09:25;10.20;1.00
4922;DHT22;16625;53.624;10.106;2023-05-29T03:11:54;8.10;1.00
4922;DHT22;16625;53.624;10.106;2023-05-29T03:14:20;8.40;1.00
4922;DHT22;16625;53.624;10.106;2023-05-29T03:16:48;8.60;1.00
4922;DHT22;16625;53.624;10.106;2023-05-29T03:19:15;8.00;1.00
4922;DHT22;16625;53.624;10.106;2023-05-29T03:21:41;8.40;1.00
4922;DHT22;16625;53.624;10.106;2023-05-29T03:24:09;8.40;1.00
4922;DHT22;16625;53.624;10.106;2023-05-29T03:26:36;7.90;1.00
4922;DHT22;16625;53.624;10.106;2023-05-29T03:29:05;7.90;1.00
4922;DHT22;16625;53.624;10.106;2023-05-29T03:31:32;7.90;1.00
4922;DHT22;16625;53.624;10.106;2023-05-29T03:33:59;7.90;1.00
4922;DHT22;16625;53.624;10.106;2023-05-29T03:36:26;8.00;1.00
4922;DHT22;16625;53.624;10.106;2023-05-29T03:38:53;8.00;1.00
4922;DHT22;16625;53.624;10.106;2023-05-29T03:41:20;9.00;99.90
4922;DHT22;16625;53.624;10.106;2023-05-29T03:43:47;8.80;99.90
4922;DHT22;16625;53.624;10.106;2023-05-29T03:46:16;8.20;99.90
4922;DHT22;16625;53.624;10.106;2023-05-29T03:48:42;10.40;99.90
4922;DHT22;16625;53.624;10.106;2023-05-29T03:51:09;9.20;99.90
4922;DHT22;16625;53.624;10.106;2023-05-29T03:53:36;8.30;99.90
4922;DHT22;16625;53.624;10.106;2023-05-29T03:56:04;8.30;99.90
4922;DHT22;16625;53.624;10.106;2023-05-29T03:58:31;8.30;86.00
4922;DHT22;16625;53.624;10.106;2023-05-29T04:00:57;9.60;6.60
4922;DHT22;16625;53.624;10.106;2023-05-29T04:03:26;8.40;61.40
4922;DHT22;16625;53.624;10.106;2023-05-29T04:05:54;9.60;1.00
4922;DHT22;16625;53.624;10.106;2023-05-29T04:08:22;8.50;1.00
4922;DHT22;16625;53.624;10.106;2023-05-29T04:10:49;8.40;1.00
4922;DHT22;16625;53.624;10.106;2023-05-29T04:13:19;8.40;1.00
4922;DHT22;16625;53.624;10.106;2023-05-29T04:15:46;8.40;1.00
4922;DHT22;16625;53.624;10.106;2023-05-29T04:18:13;9.40;1.00
4922;DHT22;16625;53.624;10.106;2023-05-29T04:20:41;8.60;1.00
4922;DHT22;16625;53.624;10.106;2023-05-29T04:23:11;8.60;1.00
4922;DHT22;16625;53.624;10.106;2023-05-29T04:25:38;8.60;1.00
4922;DHT22;16625;53.624;10.106;2023-05-29T04:28:05;8.60;1.00
4922;DHT22;16625;53.624;10.106;2023-05-29T04:30:32;9.30;1.00
4922;DHT22;16625;53.624;10.106;2023-05-29T04:32:59;8.70;1.00
4922;DHT22;16625;53.624;10.106;2023-05-29T04:35:26;11.10;99.90
4922;DHT22;16625;53.624;10.106;2023-05-29T04:37:55;8.90;99.90
4922;DHT22;16625;53.624;10.106;2023-05-29T04:40:23;9.00;99.90
4922;DHT22;16625;53.624;10.106;2023-05-29T04:42:50;9.30;99.90
4922;DHT22;16625;53.624;10.106;2023-05-29T04:45:19;9.00;99.90
4922;DHT22;16625;53.624;10.106;2023-05-29T04:47:46;9.00;99.90
4922;DHT22;16625;53.624;10.106;2023-05-29T04:50:14;10.50;99.90
4922;DHT22;16625;53.624;10.106;2023-05-29T04:52:42;9.20;99.90
4922;DHT22;16625;53.624;10.106;2023-05-29T04:55:11;9.50;99.90
4922;DHT22;16625;53.624;10.106;2023-05-29T04:57:38;9.20;18.90
4922;DHT22;16625;53.624;10.106;2023-05-29T05:00:06;9.20;1.00
4922;DHT22;16625;53.624;10.106;2023-05-29T05:02:34;9.30;8.00
4922;DHT22;16625;53.624;10.106;2023-05-29T05:05:02;9.30;1.00
4922;DHT22;16625;53.624;10.106;2023-05-29T05:07:29;9.40;1.00
4922;DHT22;16625;53.624;10.106;2023-05-29T05:09:56;11.20;1.00
4922;DHT22;16625;53.624;10.106;2023-05-29T05:12:24;10.60;1.00
4922;DHT22;16625;53.624;10.106;2023-05-29T05:14:51;11.00;99.90
4922;DHT22;16625;53.624;10.106;2023-05-29T05:17:18;9.40;1.00
4922;DHT22;16625;53.624;10.106;2023-05-29T05:19:45;10.90;1.00
4922;DHT22;16625;53.624;10.106;2023-05-29T05:22:14;9.40;1.00
4922;DHT22;16625;53.624;10.106;2023-05-29T05:24:41;9.50;99.90
4922;DHT22;16625;53.624;10.106;2023-05-29T05:27:08;9.60;1.00
4922;DHT22;16625;53.624;10.106;2023-05-29T05:29:37;11.00;1.00
4922;DHT22;16625;53.624;10.106;2023-05-29T05:32:04;10.70;1.00
4922;DHT22;16625;53.624;10.106;2023-05-29T05:34:32;9.60;99.90
4922;DHT22;16625;53.624;10.106;2023-05-29T05:36:59;9.60;99.90
4922;DHT22;16625;53.624;10.106;2023-05-29T05:39:26;9.60;99.90
4922;DHT22;16625;53.624;10.106;2023-05-29T05:41:52;9.60;99.90
4922;DHT22;16625;53.624;10.106;2023-05-29T05:44:19;9.90;99.90
4922;DHT22;16625;53.624;10.106;2023-05-29T05:46:48;9.70;99.90
4922;DHT22;16625;53.624;10.106;2023-05-29T05:49:14;11.20;99.90
4922;DHT22;16625;53.624;10.106;2023-05-29T05:51:41;10.10;99.90
4922;DHT22;16625;53.624;10.106;2023-05-29T05:54:08;10.60;63.90
4922;DHT22;16625;53.624;10.106;2023-05-29T05:56:35;10.00;99.90
4922;DHT22;16625;53.624;10.106;2023-05-29T05:59:02;10.60;99.90
4922;DHT22;16625;53.624;10.106;2023-05-29T06:04:00;10.50;1.00
4922;DHT22;16625;53.624;10.106;2023-05-29T06:06:26;11.70;1.00
4922;DHT22;16625;53.624;10.106;2023-05-29T06:08:53;10.50;1.00
4922;DHT22;16625;53.624;10.106;2023-05-29T06:11:22;12.30;99.90
4922;DHT22;16625;53.624;10.106;2023-05-29T06:13:49;11.00;99.90
4922;DHT22;16625;53.624;10.106;2023-05-29T06:16:17;10.90;99.90
4922;DHT22;16625;53.624;10.106;2023-05-29T06:18:43;10.90;99.90
4922;DHT22;16625;53.624;10.106;2023-05-29T06:21:13;10.10;99.90
4922;DHT22;16625;53.624;10.106;2023-05-29T06:26:08;11.10;99.90
4922;DHT22;16625;53.624;10.106;2023-05-29T06:28:35;13.30;99.90
4922;DHT22;16625;53.624;10.106;2023-05-29T06:31:02;11.60;43.90
4922;DHT22;16625;53.624;10.106;2023-05-29T06:33:29;13.90;19.90
4922;DHT22;16625;53.624;10.106;2023-05-29T06:35:56;13.90;1.00
4922;DHT22;16625;53.624;10.106;2023-05-29T06:38:24;11.30;99.90
4922;DHT22;16625;53.624;10.106;2023-05-29T06:40:51;13.70;99.90
4922;DHT22;16625;53.624;10.106;2023-05-29T06:43:18;14.30;99.90
4922;DHT22;16625;53.624;10.106;2023-05-29T06:45:45;14.20;99.90
4922;DHT22;16625;53.624;10.106;2023-05-29T06:48:12;12.60;54.20
4922;DHT22;16625;53.624;10.106;2023-05-29T06:50:39;14.30;1.00
4922;DHT22;16625;53.624;10.106;2023-05-29T06:53:06;12.00;1.00
4922;DHT22;16625;53.624;10.106;2023-05-29T06:55:34;11.80;1.00
4922;DHT22;16625;53.624;10.106;2023-05-29T06:58:01;12.70;1.00
4922;DHT22;16625;53.624;10.106;2023-05-29T07:00:28;12.40;1.00
4922;DHT22;16625;53.624;10.106;2023-05-29T07:02:55;13.20;1.00
4922;DHT22;16625;53.624;10.106;2023-05-29T07:05:22;12.80;1.00
4922;DHT22;16625;53.624;10.106;2023-05-29T07:07:49;14.00;1.00
4922;DHT22;16625;53.624;10.106;2023-05-29T07:10:16;13.00;1.00
4922;DHT22;16625;53.624;10.106;2023-05-29T07:12:44;12.60;99.90
4922;DHT22;16625;53.624;10.106;2023-05-29T07:15:21;13.80;99.90
4922;DHT22;16625;53.624;10.106;2023-05-29T07:17:54;12.70;99.90
4922;DHT22;16625;53.624;10.106;2023-05-29T07:20:42;12.60;99.90
4922;DHT22;16625;53.624;10.106;2023-05-29T07:23:08;13.00;99.90
4922;DHT22;16625;53.624;10.106;2023-05-29T07:25:35;13.40;99.90
4922;DHT22;16625;53.624;10.106;2023-05-29T07:28:04;12.60;99.90
4922;DHT22;16625;53.624;10.106;2023-05-29T07:30:31;14.00;99.90
4922;DHT22;16625;53.624;10.106;2023-05-29T07:32:59;14.80;99.90
4922;DHT22;16625;53.624;10.106;2023-05-29T07:35:25;12.80;99.90
4922;DHT22;16625;53.624;10.106;2023-05-29T07:37:52;12.60;99.90
4922;DHT22;16625;53.624;10.106;2023-05-29T07:40:19;14.20;99.90
4922;DHT22;16625;53.624;10.106;2023-05-29T07:42:47;14.20;99.90
4922;DHT22;16625;53.624;10.106;2023-05-29T07:45:15;14.50;99.90
4922;DHT22;16625;53.624;10.106;2023-05-29T07:47:42;14.50;99.90
4922;DHT22;16625;53.624;10.106;2023-05-29T07:50:09;13.30;99.90
4922;DHT22;16625;53.624;10.106;2023-05-29T07:52:36;13.30;99.90
4922;DHT22;16625;53.624;10.106;2023-05-29T07:55:03;15.20;99.90
4922;DHT22;16625;53.624;10.106;2023-05-29T07:57:30;13.70;99.90
4922;DHT22;16625;53.624;10.106;2023-05-29T07:59:58;14.80;99.90
4922;DHT22;16625;53.624;10.106;2023-05-29T08:02:26;14.60;99.90
4922;DHT22;16625;53.624;10.106;2023-05-29T08:04:53;13.90;99.90
4922;DHT22;16625;53.624;10.106;2023-05-29T08:07:20;14.80;99.90
4922;DHT22;16625;53.624;10.106;2023-05-29T08:09:47;14.50;99.90
4922;DHT22;16625;53.624;10.106;2023-05-29T08:12:14;15.40;99.90
4922;DHT22;16625;53.624;10.106;2023-05-29T08:14:41;13.70;99.90
4922;DHT22;16625;53.624;10.106;2023-05-29T08:17:08;13.50;99.90
4922;DHT22;16625;53.624;10.106;2023-05-29T08:19:36;15.30;99.90
4922;DHT22;16625;53.624;10.106;2023-05-29T08:22:03;14.60;99.90
4922;DHT22;16625;53.624;10.106;2023-05-29T08:24:31;14.40;99.90
4922;DHT22;16625;53.624;10.106;2023-05-29T08:26:58;14.80;99.90
4922;DHT22;16625;53.624;10.106;2023-05-29T08:29:25;15.50;99.90
4922;DHT22;16625;53.624;10.106;2023-05-29T08:31:52;15.20;99.90
4922;DHT22;16625;53.624;10.106;2023-05-29T08:34:19;15.00;99.90
4922;DHT22;16625;53.624;10.106;2023-05-29T08:36:47;15.90;99.90
4922;DHT22;16625;53.624;10.106;2023-05-29T08:39:17;15.80;99.90
4922;DHT22;16625;53.624;10.106;2023-05-29T08:41:51;14.30;99.90
4922;DHT22;16625;53.624;10.106;2023-05-29T08:44:22;15.90;99.90
4922;DHT22;16625;53.624;10.106;2023-05-29T08:46:54;14.40;99.90
4922;DHT22;16625;53.624;10.106;2023-05-29T08:49:22;15.50;99.90
4922;DHT22;16625;53.624;10.106;2023-05-29T08:51:57;14.60;99.90
4922;DHT22;16625;53.624;10.106;2023-05-29T08:54:27;14.50;99.90
4922;DHT22;16625;53.624;10.106;2023-05-29T08:56:56;14.90;99.90
4922;DHT22;16625;53.624;10.106;2023-05-29T08:59:25;16.50;99.90
4922;DHT22;16625;53.624;10.106;2023-05-29T09:01:53;16.00;99.90
4922;DHT22;16625;53.624;10.106;2023-05-29T09:04:21;16.80;99.90
4922;DHT22;16625;53.624;10.106;2023-05-29T09:06:50;16.00;99.90
4922;DHT22;16625;53.624;10.106;2023-05-29T09:09:21;16.20;99.90
4922;DHT22;16625;53.624;10.106;2023-05-29T09:11:49;15.00;99.90
4922;DHT22;16625;53.624;10.106;2023-05-29T09:14:32;15.30;99.90
4922;DHT22;16625;53.624;10.106;2023-05-29T09:17:01;15.40;99.90
4922;DHT22;16625;53.624;10.106;2023-05-29T09:19:28;15.30;99.90
4922;DHT22;16625;53.624;10.106;2023-05-29T09:22:02;16.00;99.90
4922;DHT22;16625;53.624;10.106;2023-05-29T09:24:29;16.40;99.90
4922;DHT22;16625;53.624;10.106;2023-05-29T09:26:59;15.50;99.90
4922;DHT22;16625;53.624;10.106;2023-05-29T09:29:26;15.50;99.90
4922;DHT22;16625;53.624;10.106;2023-05-29T09:31:53;16.30;99.90
4922;DHT22;16625;53.624;10.106;2023-05-29T09:34:23;16.80;99.90
4922;DHT22;16625;53.624;10.106;2023-05-29T09:36:52;15.60;99.90
4922;DHT22;16625;53.624;10.106;2023-05-29T09:39:20;15.90;99.90
4922;DHT22;16625;53.624;10.106;2023-05-29T09:41:47;15.80;99.90
4922;DHT22;16625;53.624;10.106;2023-05-29T09:44:15;16.00;99.90
4922;DHT22;16625;53.624;10.106;2023-05-29T09:46:42;16.40;99.90
4922;DHT22;16625;53.624;10.106;2023-05-29T09:49:13;17.60;99.90
4922;DHT22;16625;53.624;10.106;2023-05-29T09:51:42;16.90;99.90
4922;DHT22;16625;53.624;10.106;2023-05-29T09:54:15;16.60;99.90
4922;DHT22;16625;53.624;10.106;2023-05-29T09:56:44;16.70;99.90
4922;DHT22;16625;53.624;10.106;2023-05-29T09:59:13;16.80;99.90
4922;DHT22;16625;53.624;10.106;2023-05-29T10:01:41;16.60;99.90
4922;DHT22;16625;53.624;10.106;2023-05-29T10:04:10;17.20;99.90
4922;DHT22;16625;53.624;10.106;2023-05-29T10:06:38;17.10;99.90
4922;DHT22;16625;53.624;10.106;2023-05-29T10:09:06;17.00;99.90
4922;DHT22;16625;53.624;10.106;2023-05-29T10:11:35;17.10;99.90
4922;DHT22;16625;53.624;10.106;2023-05-29T10:14:06;17.00;99.90
4922;DHT22;16625;53.624;10.106;2023-05-29T10:16:35;17.40;99.90
4922;DHT22;16625;53.624;10.106;2023-05-29T10:19:12;17.20;99.90
4922;DHT22;16625;53.624;10.106;2023-05-29T10:21:40;17.50;99.90
4922;DHT22;16625;53.624;10.106;2023-05-29T10:24:08;17.70;99.90
4922;DHT22;16625;53.624;10.106;2023-05-29T10:26:39;17.60;99.90
4922;DHT22;16625;53.624;10.106;2023-05-29T10:29:12;17.70;99.90
4922;DHT22;16625;53.624;10.106;2023-05-29T10:31:48;17.60;99.90
4922;DHT22;16625;53.624;10.106;2023-05-29T10:34:23;17.90;99.90
4922;DHT22;16625;53.624;10.106;2023-05-29T10:36:59;18.00;99.90
4922;DHT22;16625;53.624;10.106;2023-05-29T10:39:29;17.60;99.90
4922;DHT22;16625;53.624;10.106;2023-05-29T10:41:56;17.80;99.90
4922;DHT22;16625;53.624;10.106;2023-05-29T10:44:40;17.50;99.90
4922;DHT22;16625;53.624;10.106;2023-05-29T10:47:07;17.70;99.90
4922;DHT22;16625;53.624;10.106;2023-05-29T10:49:37;18.00;99.90
4922;DHT22;16625;53.624;10.106;2023-05-29T10:52:05;18.80;99.90
4922;DHT22;16625;53.624;10.106;2023-05-29T10:54:51;18.40;99.90
4922;DHT22;16625;53.624;10.106;2023-05-29T10:57:21;18.00;99.90
4922;DHT22;16625;53.624;10.106;2023-05-29T10:59:58;17.90;99.90
4922;DHT22;16625;53.624;10.106;2023-05-29T11:02:25;18.00;99.90
4922;DHT22;16625;53.624;10.106;2023-05-29T11:05:17;18.20;99.90
4922;DHT22;16625;53.624;10.106;2023-05-29T11:07:51;18.50;99.90
4922;DHT22;16625;53.624;10.106;2023-05-29T11:10:41;18.50;99.90
4922;DHT22;16625;53.624;10.106;2023-05-29T11:13:09;18.70;99.90
4922;DHT22;16625;53.624;10.106;2023-05-29T11:15:38;18.40;99.90
4922;DHT22;16625;53.624;10.106;2023-05-29T11:18:08;18.20;99.90
4922;DHT22;16625;53.624;10.106;2023-05-29T11:20:43;18.40;99.90
4922;DHT22;16625;53.624;10.106;2023-05-29T11:23:15;18.40;99.90
4922;DHT22;16625;53.624;10.106;2023-05-29T11:25:44;18.60;99.90
4922;DHT22;16625;53.624;10.106;2023-05-29T11:28:11;18.80;99.90
4922;DHT22;16625;53.624;10.106;2023-05-29T11:30:47;18.70;99.90
4922;DHT22;16625;53.624;10.106;2023-05-29T11:33:24;18.70;99.90
4922;DHT22;16625;53.624;10.106;2023-05-29T11:35:56;18.60;99.90
4922;DHT22;16625;53.624;10.106;2023-05-29T11:38:24;18.80;99.90
4922;DHT22;16625;53.624;10.106;2023-05-29T11:40:52;18.80;99.90
4922;DHT22;16625;53.624;10.106;2023-05-29T11:43:20;18.90;99.90
4922;DHT22;16625;53.624;10.106;2023-05-29T11:45:48;18.60;99.90
4922;DHT22;16625;53.624;10.106;2023-05-29T11:48:15;18.60;99.90
4922;DHT22;16625;53.624;10.106;2023-05-29T11:50:42;18.70;99.90
4922;DHT22;16625;53.624;10.106;2023-05-29T11:53:11;18.60;99.90
4922;DHT22;16625;53.624;10.106;2023-05-29T11:55:38;18.50;99.90
4922;DHT22;16625;53.624;10.106;2023-05-29T11:58:05;18.80;99.90
4922;DHT22;16625;53.624;10.106;2023-05-29T12:00:33;18.80;99.90
4922;DHT22;16625;53.624;10.106;2023-05-29T12:03:02;19.10;99.90
4922;DHT22;16625;53.624;10.106;2023-05-29T12:05:30;19.00;99.90
4922;DHT22;16625;53.624;10.106;2023-05-29T12:07:58;18.80;99.90
4922;DHT22;16625;53.624;10.106;2023-05-29T12:10:27;18.90;99.90
4922;DHT22;16625;53.624;10.106;2023-05-29T12:12:56;18.60;99.90
4922;DHT22;16625;53.624;10.106;2023-05-29T12:15:24;18.70;99.90
4922;DHT22;16625;53.624;10.106;2023-05-29T12:17:52;18.80;99.90
4922;DHT22;16625;53.624;10.106;2023-05-29T12:20:23;18.80;99.90
4922;DHT22;16625;53.624;10.106;2023-05-29T12:22:52;19.20;99.90
4922;DHT22;16625;53.624;10.106;2023-05-29T12:25:20;19.30;99.90
4922;DHT22;16625;53.624;10.106;2023-05-29T12:27:48;19.10;99.90
4922;DHT22;16625;53.624;10.106;2023-05-29T12:30:19;19.10;99.90
4922;DHT22;16625;53.624;10.106;2023-05-29T12:32:48;19.10;99.90
4922;DHT22;16625;53.624;10.106;2023-05-29T12:35:17;19.30;99.90
4922;DHT22;16625;53.624;10.106;2023-05-29T12:37:47;19.30;99.90
4922;DHT22;16625;53.624;10.106;2023-05-29T12:40:19;19.50;99.90
4922;DHT22;16625;53.624;10.106;2023-05-29T12:42:47;19.50;99.90
4922;DHT22;16625;53.624;10.106;2023-05-29T12:45:14;19.10;99.90
4922;DHT22;16625;53.624;10.106;2023-05-29T12:47:50;19.20;99.90
4922;DHT22;16625;53.624;10.106;2023-05-29T12:50:22;19.50;99.90
4922;DHT22;16625;53.624;10.106;2023-05-29T12:52:58;19.40;99.90
4922;DHT22;16625;53.624;10.106;2023-05-29T12:55:25;19.60;99.90
4922;DHT22;16625;53.624;10.106;2023-05-29T12:57:53;19.80;99.90
4922;DHT22;16625;53.624;10.106;2023-05-29T13:00:21;19.90;99.90
4922;DHT22;16625;53.624;10.106;2023-05-29T13:02:49;20.20;99.90
4922;DHT22;16625;53.624;10.106;2023-05-29T13:05:16;20.40;99.90
4922;DHT22;16625;53.624;10.106;2023-05-29T13:07:45;20.40;99.90
4922;DHT22;16625;53.624;10.106;2023-05-29T13:10:14;20.00;99.90
4922;DHT22;16625;53.624;10.106;2023-05-29T13:12:41;20.00;99.90
4922;DHT22;16625;53.624;10.106;2023-05-29T13:15:09;20.20;99.90
4922;DHT22;16625;53.624;10.106;2023-05-29T13:17:37;20.00;99.90
4922;DHT22;16625;53.624;10.106;2023-05-29T13:20:07;19.90;99.90
4922;DHT22;16625;53.624;10.106;2023-05-29T13:22:35;20.20;99.90
4922;DHT22;16625;53.624;10.106;2023-05-29T13:25:02;20.10;99.90
4922;DHT22;16625;53.624;10.106;2023-05-29T13:27:33;20.10;99.90
4922;DHT22;16625;53.624;10.106;2023-05-29T13:30:01;20.30;99.90
4922;DHT22;16625;53.624;10.106;2023-05-29T13:32:28;20.30;99.90
4922;DHT22;16625;53.624;10.106;2023-05-29T13:34:55;20.60;99.90
4922;DHT22;16625;53.624;10.106;2023-05-29T13:37:22;20.70;99.90
4922;DHT22;16625;53.624;10.106;2023-05-29T13:39:49;20.70;99.90
4922;DHT22;16625;53.624;10.106;2023-05-29T13:42:18;20.70;99.90
4922;DHT22;16625;53.624;10.106;2023-05-29T13:44:47;20.70;99.90
4922;DHT22;16625;53.624;10.106;2023-05-29T13:47:14;20.80;99.90
4922;DHT22;16625;53.624;10.106;2023-05-29T13:49:42;20.50;99.90
4922;DHT22;16625;53.624;10.106;2023-05-29T13:52:09;20.50;99.90
4922;DHT22;16625;53.624;10.106;2023-05-29T13:54:36;20.40;99.90
4922;DHT22;16625;53.624;10.106;2023-05-29T13:57:03;20.20;99.90
4922;DHT22;16625;53.624;10.106;2023-05-29T13:59:31;20.50;99.90
4922;DHT22;16625;53.624;10.106;2023-05-29T14:01:59;20.70;99.90
4922;DHT22;16625;53.624;10.106;2023-05-29T14:04:28;20.90;99.90
4922;DHT22;16625;53.624;10.106;2023-05-29T14:06:55;21.00;99.90
4922;DHT22;16625;53.624;10.106;2023-05-29T14:09:23;21.10;99.90
4922;DHT22;16625;53.624;10.106;2023-05-29T14:11:53;20.80;99.90
4922;DHT22;16625;53.624;10.106;2023-05-29T14:14:21;20.60;99.90
4922;DHT22;16625;53.624;10.106;2023-05-29T14:16:48;20.70;99.90
4922;DHT22;16625;53.624;10.106;2023-05-29T14:19:17;20.70;99.90
4922;DHT22;16625;53.624;10.106;2023-05-29T14:21:44;20.90;99.90
4922;DHT22;16625;53.624;10.106;2023-05-29T14:24:11;21.00;99.90
4922;DHT22;16625;53.624;10.106;2023-05-29T14:26:38;21.00;99.90
4922;DHT22;16625;53.624;10.106;2023-05-29T14:29:05;21.00;99.90
4922;DHT22;16625;53.624;10.106;2023-05-29T14:31:32;21.20;99.90
4922;DHT22;16625;53.624;10.106;2023-05-29T14:33:59;21.20;99.90
4922;DHT22;16625;53.624;10.106;2023-05-29T14:36:27;21.10;99.90
4922;DHT22;16625;53.624;10.106;2023-05-29T14:38:54;21.10;99.90
4922;DHT22;16625;53.624;10.106;2023-05-29T14:41:21;21.10;99.90
4922;DHT22;16625;53.624;10.106;2023-05-29T14:43:49;21.30;99.90
4922;DHT22;16625;53.624;10.106;2023-05-29T14:46:17;21.40;99.90
4922;DHT22;16625;53.624;10.106;2023-05-29T14:48:44;21.30;99.90
4922;DHT22;16625;53.624;10.106;2023-05-29T14:51:14;21.20;99.90
4922;DHT22;16625;53.624;10.106;2023-05-29T14:53:44;21.20;99.90
4922;DHT22;16625;53.624;10.106;2023-05-29T14:56:11;21.40;99.90
4922;DHT22;16625;53.624;10.106;2023-05-29T14:58:38;21.60;99.90
4922;DHT22;16625;53.624;10.106;2023-05-29T15:01:06;21.70;99.90
4922;DHT22;16625;53.624;10.106;2023-05-29T15:03:34;21.60;99.90
4922;DHT22;16625;53.624;10.106;2023-05-29T15:06:01;21.40;99.90
4922;DHT22;16625;53.624;10.106;2023-05-29T15:08:28;21.40;99.90
4922;DHT22;16625;53.624;10.106;2023-05-29T15:10:58;21.50;99.90
4922;DHT22;16625;53.624;10.106;2023-05-29T15:13:25;21.40;99.90
4922;DHT22;16625;53.624;10.106;2023-05-29T15:15:52;21.60;99.90
4922;DHT22;16625;53.624;10.106;2023-05-29T15:18:19;21.70;99.90
4922;DHT22;16625;53.624;10.106;2023-05-29T15:20:45;21.60;99.90
4922;DHT22;16625;53.624;10.106;2023-05-29T15:23:12;21.70;99.90
4922;DHT22;16625;53.624;10.106;2023-05-29T15:25:41;21.40;99.90
4922;DHT22;16625;53.624;10.106;2023-05-29T15:28:09;21.10;99.90
4922;DHT22;16625;53.624;10.106;2023-05-29T15:30:38;21.10;99.90
4922;DHT22;16625;53.624;10.106;2023-05-29T15:33:05;21.30;99.90
4922;DHT22;16625;53.624;10.106;2023-05-29T15:35:35;21.40;99.90
4922;DHT22;16625;53.624;10.106;2023-05-29T15:38:02;21.00;99.90
4922;DHT22;16625;53.624;10.106;2023-05-29T15:40:29;21.00;99.90
4922;DHT22;16625;53.624;10.106;2023-05-29T15:42:56;21.10;99.90
4922;DHT22;16625;53.624;10.106;2023-05-29T15:45:24;21.20;99.90
4922;DHT22;16625;53.624;10.106;2023-05-29T15:47:52;21.20;99.90
4922;DHT22;16625;53.624;10.106;2023-05-29T15:50:19;21.30;99.90
4922;DHT22;16625;53.624;10.106;2023-05-29T15:52:47;21.30;99.90